sensor_id;sensor_type;location;lat;lon;timestamp;temperature;humidity
19734;DHT22;10018;51.230;7.860;2023-09-19T00:00:38;15.60;99.90
19734;DHT22;10018;51.230;7.860;2023-09-19T00:03:06;15.60;99.90
19734;DHT22;10018;51.230;7.860;2023-09-19T00:05:34;15.60;99.90
19734;DHT22;10018;51.230;7.860;2023-09-19T00:08:06;15.60;99.90
19734;DHT22;10018;51.230;7.860;2023-09-19T00:10:34;15.70;99.90
19734;DHT22;10018;51.230;7.860;2023-09-19T00:13:04;15.70;99.90
19734;DHT22;10018;51.230;7.860;2023-09-19T00:15:35;15.70;99.90
19734;DHT22;10018;51.230;7.860;2023-09-19T00:18:01;15.70;99.90
19734;DHT22;10018;51.230;7.860;2023-09-19T00:20:27;15.70;99.90
19734;DHT22;10018;51.230;7.860;2023-09-19T00:22:55;15.70;99.90
19734;DHT22;10018;51.230;7.860;2023-09-19T00:25:20;15.60;99.90
19734;DHT22;10018;51.230;7.860;2023-09-19T00:27:47;15.60;99.90
19734;DHT22;10018;51.230;7.860;2023-09-19T00:30:15;15.60;99.90
19734;DHT22;10018;51.230;7.860;2023-09-19T00:32:47;15.60;99.90
19734;DHT22;10018;51.230;7.860;2023-09-19T00:35:16;15.50;99.90
19734;DHT22;10018;51.230;7.860;2023-09-19T00:37:42;15.60;99.90
19734;DHT22;10018;51.230;7.860;2023-09-19T00:40:11;15.50;99.90
19734;DHT22;10018;51.230;7.860;2023-09-19T00:42:44;15.50;99.90
19734;DHT22;10018;51.230;7.860;2023-09-19T00:45:11;15.50;99.90
19734;DHT22;10018;51.230;7.860;2023-09-19T00:47:51;15.50;99.90
19734;DHT22;10018;51.230;7.860;2023-09-19T00:50:22;15.50;99.90
19734;DHT22;10018;51.230;7.860;2023-09-19T00:52:54;15.50;99.90
19734;DHT22;10018;51.230;7.860;2023-09-19T00:55:21;15.50;99.90
19734;DHT22;10018;51.230;7.860;2023-09-19T00:57:49;15.50;99.90
19734;DHT22;10018;51.230;7.860;2023-09-19T01:00:15;15.50;99.90
19734;DHT22;10018;51.230;7.860;2023-09-19T01:02:42;15.50;99.90
19734;DHT22;10018;51.230;7.860;2023-09-19T01:05:09;15.40;99.90
19734;DHT22;10018;51.230;7.860;2023-09-19T01:07:35;15.50;99.90
19734;DHT22;10018;51.230;7.860;2023-09-19T01:10:06;15.40;99.90
19734;DHT22;10018;51.230;7.860;2023-09-19T01:13:04;15.40;99.90
19734;DHT22;10018;51.230;7.860;2023-09-19T01:15:59;15.50;99.90
19734;DHT22;10018;51.230;7.860;2023-09-19T01:18:52;15.40;99.90
19734;DHT22;10018;51.230;7.860;2023-09-19T01:27:25;15.40;99.90
19734;DHT22;10018;51.230;7.860;2023-09-19T01:30:17;15.30;99.90
19734;DHT22;10018;51.230;7.860;2023-09-19T01:32:50;15.30;99.90
19734;DHT22;10018;51.230;7.860;2023-09-19T01:35:18;15.30;99.90
19734;DHT22;10018;51.230;7.860;2023-09-19T01:37:44;15.30;99.90
19734;DHT22;10018;51.230;7.860;2023-09-19T01:40:14;15.30;99.90
19734;DHT22;10018;51.230;7.860;2023-09-19T01:42:50;15.30;99.90
19734;DHT22;10018;51.230;7.860;2023-09-19T01:48:36;15.30;99.90
19734;DHT22;10018;51.230;7.860;2023-09-19T01:51:06;15.20;99.90
19734;DHT22;10018;51.230;7.860;2023-09-19T01:59:40;15.20;99.90
19734;DHT22;10018;51.230;7.860;2023-09-19T02:02:06;15.20;99.90
19734;DHT22;10018;51.230;7.860;2023-09-19T02:04:33;15.10;99.90
19734;DHT22;10018;51.230;7.860;2023-09-19T02:07:00;15.10;99.90
19734;DHT22;10018;51.230;7.860;2023-09-19T02:09:26;15.10;99.90
19734;DHT22;10018;51.230;7.860;2023-09-19T02:11:52;15.10;99.90
19734;DHT22;10018;51.230;7.860;2023-09-19T02:14:18;15.20;99.90
19734;DHT22;10018;51.230;7.860;2023-09-19T02:16:45;15.10;99.90
19734;DHT22;10018;51.230;7.860;2023-09-19T02:19:11;15.20;99.90
19734;DHT22;10018;51.230;7.860;2023-09-19T02:21:36;15.10;99.90
19734;DHT22;10018;51.230;7.860;2023-09-19T02:24:06;15.10;99.90
19734;DHT22;10018;51.230;7.860;2023-09-19T02:26:35;15.10;99.90
19734;DHT22;10018;51.230;7.860;2023-09-19T02:29:02;15.10;99.90
19734;DHT22;10018;51.230;7.860;2023-09-19T02:31:30;15.10;99.90
19734;DHT22;10018;51.230;7.860;2023-09-19T02:33:56;15.10;99.90
19734;DHT22;10018;51.230;7.860;2023-09-19T02:36:22;15.10;99.90
19734;DHT22;10018;51.230;7.860;2023-09-19T02:38:49;15.10;99.90
19734;DHT22;10018;51.230;7.860;2023-09-19T02:41:14;15.10;99.90
19734;DHT22;10018;51.230;7.860;2023-09-19T02:43:40;15.10;99.90
19734;DHT22;10018;51.230;7.860;2023-09-19T02:46:08;15.10;99.90
19734;DHT22;10018;51.230;7.860;2023-09-19T02:48:36;15.10;99.90
19734;DHT22;10018;51.230;7.860;2023-09-19T02:51:02;15.10;99.90
19734;DHT22;10018;51.230;7.860;2023-09-19T02:53:31;15.10;99.90
19734;DHT22;10018;51.230;7.860;2023-09-19T02:55:57;15.10;99.90
19734;DHT22;10018;51.230;7.860;2023-09-19T02:58:24;15.10;99.90
19734;DHT22;10018;51.230;7.860;2023-09-19T03:00:50;15.10;99.90
19734;DHT22;10018;51.230;7.860;2023-09-19T03:03:17;15.10;99.90
19734;DHT22;10018;51.230;7.860;2023-09-19T03:05:45;15.10;99.90
19734;DHT22;10018;51.230;7.860;2023-09-19T03:08:16;15.10;99.90
19734;DHT22;10018;51.230;7.860;2023-09-19T03:10:42;15.10;99.90
19734;DHT22;10018;51.230;7.860;2023-09-19T03:13:08;15.10;99.90
19734;DHT22;10018;51.230;7.860;2023-09-19T03:15:35;15.10;99.90
19734;DHT22;10018;51.230;7.860;2023-09-19T03:18:04;15.20;99.90
19734;DHT22;10018;51.230;7.860;2023-09-19T03:20:30;15.10;99.90
19734;DHT22;10018;51.230;7.860;2023-09-19T03:22:55;15.00;99.90
19734;DHT22;10018;51.230;7.860;2023-09-19T03:25:22;14.90;99.90
19734;DHT22;10018;51.230;7.860;2023-09-19T03:27:48;14.90;99.90
19734;DHT22;10018;51.230;7.860;2023-09-19T03:30:14;14.80;99.90
19734;DHT22;10018;51.230;7.860;2023-09-19T03:32:44;14.90;99.90
19734;DHT22;10018;51.230;7.860;2023-09-19T03:35:11;14.90;99.90
19734;DHT22;10018;51.230;7.860;2023-09-19T03:37:40;14.90;99.90
19734;DHT22;10018;51.230;7.860;2023-09-19T03:40:09;14.90;99.90
19734;DHT22;10018;51.230;7.860;2023-09-19T03:42:38;14.90;99.90
19734;DHT22;10018;51.230;7.860;2023-09-19T03:45:08;14.80;99.90
19734;DHT22;10018;51.230;7.860;2023-09-19T03:47:38;14.80;99.90
19734;DHT22;10018;51.230;7.860;2023-09-19T03:50:05;14.70;99.90
19734;DHT22;10018;51.230;7.860;2023-09-19T03:52:30;14.70;99.90
19734;DHT22;10018;51.230;7.860;2023-09-19T03:54:56;14.80;99.90
19734;DHT22;10018;51.230;7.860;2023-09-19T03:57:21;14.70;99.90
19734;DHT22;10018;51.230;7.860;2023-09-19T03:59:50;14.70;99.90
19734;DHT22;10018;51.230;7.860;2023-09-19T04:02:19;14.70;99.90
19734;DHT22;10018;51.230;7.860;2023-09-19T04:04:48;14.60;99.90
19734;DHT22;10018;51.230;7.860;2023-09-19T04:07:14;14.60;99.90
19734;DHT22;10018;51.230;7.860;2023-09-19T04:09:39;14.50;99.90
19734;DHT22;10018;51.230;7.860;2023-09-19T04:12:05;14.50;99.90
19734;DHT22;10018;51.230;7.860;2023-09-19T04:14:34;14.50;99.90
19734;DHT22;10018;51.230;7.860;2023-09-19T04:16:59;14.50;99.90
19734;DHT22;10018;51.230;7.860;2023-09-19T04:19:26;14.50;99.90
19734;DHT22;10018;51.230;7.860;2023-09-19T04:21:51;14.40;99.90
19734;DHT22;10018;51.230;7.860;2023-09-19T04:24:17;14.40;99.90
19734;DHT22;10018;51.230;7.860;2023-09-19T04:26:47;14.40;99.90
19734;DHT22;10018;51.230;7.860;2023-09-19T04:29:14;14.30;99.90
19734;DHT22;10018;51.230;7.860;2023-09-19T04:31:41;14.30;99.90
19734;DHT22;10018;51.230;7.860;2023-09-19T04:34:09;14.30;99.90
19734;DHT22;10018;51.230;7.860;2023-09-19T04:36:35;14.30;99.90
19734;DHT22;10018;51.230;7.860;2023-09-19T04:39:02;14.20;99.90
19734;DHT22;10018;51.230;7.860;2023-09-19T04:41:30;14.20;99.90
19734;DHT22;10018;51.230;7.860;2023-09-19T04:43:56;14.20;99.90
19734;DHT22;10018;51.230;7.860;2023-09-19T04:46:21;14.10;99.90
19734;DHT22;10018;51.230;7.860;2023-09-19T04:48:47;14.10;99.90
19734;DHT22;10018;51.230;7.860;2023-09-19T04:51:12;14.10;99.90
19734;DHT22;10018;51.230;7.860;2023-09-19T04:53:39;14.00;99.90
19734;DHT22;10018;51.230;7.860;2023-09-19T04:56:07;14.10;99.90
19734;DHT22;10018;51.230;7.860;2023-09-19T04:58:33;14.10;99.90
19734;DHT22;10018;51.230;7.860;2023-09-19T05:00:59;14.10;99.90
19734;DHT22;10018;51.230;7.860;2023-09-19T05:03:25;14.10;99.90
19734;DHT22;10018;51.230;7.860;2023-09-19T05:05:50;14.00;99.90
19734;DHT22;10018;51.230;7.860;2023-09-19T05:08:16;14.00;99.90
19734;DHT22;10018;51.230;7.860;2023-09-19T05:10:41;13.90;99.90
19734;DHT22;10018;51.230;7.860;2023-09-19T05:13:07;13.90;99.90
19734;DHT22;10018;51.230;7.860;2023-09-19T05:15:33;13.90;99.90
19734;DHT22;10018;51.230;7.860;2023-09-19T05:17:59;13.90;99.90
19734;DHT22;10018;51.230;7.860;2023-09-19T05:20:30;13.90;99.90
19734;DHT22;10018;51.230;7.860;2023-09-19T05:23:05;13.80;99.90
19734;DHT22;10018;51.230;7.860;2023-09-19T05:25:38;13.80;99.90
19734;DHT22;10018;51.230;7.860;2023-09-19T05:28:07;13.80;99.90
19734;DHT22;10018;51.230;7.860;2023-09-19T05:30:33;13.80;99.90
19734;DHT22;10018;51.230;7.860;2023-09-19T05:33:01;13.70;99.90
19734;DHT22;10018;51.230;7.860;2023-09-19T05:35:27;13.80;99.90
19734;DHT22;10018;51.230;7.860;2023-09-19T05:37:53;13.80;99.90
19734;DHT22;10018;51.230;7.860;2023-09-19T05:40:20;13.70;99.90
19734;DHT22;10018;51.230;7.860;2023-09-19T05:42:47;13.80;99.90
19734;DHT22;10018;51.230;7.860;2023-09-19T05:45:13;13.80;99.90
19734;DHT22;10018;51.230;7.860;2023-09-19T05:47:40;13.80;99.90
19734;DHT22;10018;51.230;7.860;2023-09-19T05:50:11;13.90;99.90
19734;DHT22;10018;51.230;7.860;2023-09-19T05:52:42;13.90;99.90
19734;DHT22;10018;51.230;7.860;2023-09-19T05:55:10;14.00;99.90
19734;DHT22;10018;51.230;7.860;2023-09-19T05:57:36;14.00;99.90
19734;DHT22;10018;51.230;7.860;2023-09-19T06:00:05;13.90;99.90
19734;DHT22;10018;51.230;7.860;2023-09-19T06:02:36;14.00;99.90
19734;DHT22;10018;51.230;7.860;2023-09-19T06:05:01;14.00;99.90
19734;DHT22;10018;51.230;7.860;2023-09-19T06:07:27;14.00;99.90
19734;DHT22;10018;51.230;7.860;2023-09-19T06:10:02;14.10;99.90
19734;DHT22;10018;51.230;7.860;2023-09-19T06:12:31;14.10;99.90
19734;DHT22;10018;51.230;7.860;2023-09-19T06:14:58;14.10;99.90
19734;DHT22;10018;51.230;7.860;2023-09-19T06:17:25;14.10;99.90
19734;DHT22;10018;51.230;7.860;2023-09-19T06:19:54;14.10;99.90
19734;DHT22;10018;51.230;7.860;2023-09-19T06:22:21;14.20;99.90
19734;DHT22;10018;51.230;7.860;2023-09-19T06:24:46;14.20;99.90
19734;DHT22;10018;51.230;7.860;2023-09-19T06:27:12;14.20;99.90
19734;DHT22;10018;51.230;7.860;2023-09-19T06:29:38;14.30;99.90
19734;DHT22;10018;51.230;7.860;2023-09-19T06:32:10;14.30;99.90
19734;DHT22;10018;51.230;7.860;2023-09-19T06:34:36;14.40;99.90
19734;DHT22;10018;51.230;7.860;2023-09-19T06:37:02;14.40;99.90
19734;DHT22;10018;51.230;7.860;2023-09-19T06:39:28;14.40;99.90
19734;DHT22;10018;51.230;7.860;2023-09-19T06:41:54;14.40;99.90
19734;DHT22;10018;51.230;7.860;2023-09-19T06:44:20;14.40;99.90
19734;DHT22;10018;51.230;7.860;2023-09-19T06:46:50;14.50;99.90
19734;DHT22;10018;51.230;7.860;2023-09-19T06:49:17;14.50;99.90
19734;DHT22;10018;51.230;7.860;2023-09-19T06:51:43;14.60;99.90
19734;DHT22;10018;51.230;7.860;2023-09-19T06:54:09;14.60;99.90
19734;DHT22;10018;51.230;7.860;2023-09-19T06:56:34;14.60;99.90
19734;DHT22;10018;51.230;7.860;2023-09-19T06:59:00;14.70;99.90
19734;DHT22;10018;51.230;7.860;2023-09-19T07:01:31;14.70;99.90
19734;DHT22;10018;51.230;7.860;2023-09-19T07:03:57;14.70;99.90
19734;DHT22;10018;51.230;7.860;2023-09-19T07:06:23;14.70;99.90
19734;DHT22;10018;51.230;7.860;2023-09-19T07:08:49;14.80;99.90
19734;DHT22;10018;51.230;7.860;2023-09-19T07:11:15;14.80;99.90
19734;DHT22;10018;51.230;7.860;2023-09-19T07:13:41;14.90;99.90
19734;DHT22;10018;51.230;7.860;2023-09-19T07:16:07;14.90;99.90
19734;DHT22;10018;51.230;7.860;2023-09-19T07:18:36;15.00;99.90
19734;DHT22;10018;51.230;7.860;2023-09-19T07:21:02;15.10;99.90
19734;DHT22;10018;51.230;7.860;2023-09-19T07:23:30;15.10;99.90
19734;DHT22;10018;51.230;7.860;2023-09-19T07:26:03;15.10;99.90
19734;DHT22;10018;51.230;7.860;2023-09-19T07:28:31;15.20;99.90
19734;DHT22;10018;51.230;7.860;2023-09-19T07:30:56;15.20;99.90
19734;DHT22;10018;51.230;7.860;2023-09-19T07:33:22;15.20;99.90
19734;DHT22;10018;51.230;7.860;2023-09-19T07:35:50;15.30;99.90
19734;DHT22;10018;51.230;7.860;2023-09-19T07:38:15;15.30;99.90
19734;DHT22;10018;51.230;7.860;2023-09-19T07:40:44;15.30;99.90
19734;DHT22;10018;51.230;7.860;2023-09-19T07:43:12;15.40;99.90
19734;DHT22;10018;51.230;7.860;2023-09-19T07:45:38;15.40;99.90
19734;DHT22;10018;51.230;7.860;2023-09-19T07:48:04;15.50;99.90
19734;DHT22;10018;51.230;7.860;2023-09-19T07:50:34;15.50;99.90
19734;DHT22;10018;51.230;7.860;2023-09-19T07:53:02;15.60;99.90
19734;DHT22;10018;51.230;7.860;2023-09-19T07:55:30;15.50;99.90
19734;DHT22;10018;51.230;7.860;2023-09-19T07:57:56;15.50;99.90
19734;DHT22;10018;51.230;7.860;2023-09-19T08:00:22;15.60;99.90
19734;DHT22;10018;51.230;7.860;2023-09-19T08:02:49;15.70;99.90
19734;DHT22;10018;51.230;7.860;2023-09-19T08:05:17;15.70;99.90
19734;DHT22;10018;51.230;7.860;2023-09-19T08:07:45;15.70;99.90
19734;DHT22;10018;51.230;7.860;2023-09-19T08:10:15;15.80;99.90
19734;DHT22;10018;51.230;7.860;2023-09-19T08:12:44;16.00;99.90
19734;DHT22;10018;51.230;7.860;2023-09-19T08:15:18;16.00;99.90
19734;DHT22;10018;51.230;7.860;2023-09-19T08:17:46;16.10;99.90
19734;DHT22;10018;51.230;7.860;2023-09-19T08:20:12;16.00;99.90
19734;DHT22;10018;51.230;7.860;2023-09-19T08:22:49;16.10;99.90
19734;DHT22;10018;51.230;7.860;2023-09-19T08:25:20;16.10;99.90
19734;DHT22;10018;51.230;7.860;2023-09-19T08:27:47;16.10;99.90
19734;DHT22;10018;51.230;7.860;2023-09-19T08:30:18;16.00;99.90
19734;DHT22;10018;51.230;7.860;2023-09-19T08:32:45;16.10;99.90
19734;DHT22;10018;51.230;7.860;2023-09-19T08:35:13;16.10;99.90
19734;DHT22;10018;51.230;7.860;2023-09-19T08:37:44;16.20;99.90
19734;DHT22;10018;51.230;7.860;2023-09-19T08:40:13;16.30;99.90
19734;DHT22;10018;51.230;7.860;2023-09-19T08:43:08;16.30;99.90
19734;DHT22;10018;51.230;7.860;2023-09-19T08:45:34;16.40;99.90
19734;DHT22;10018;51.230;7.860;2023-09-19T08:48:26;16.40;99.90
19734;DHT22;10018;51.230;7.860;2023-09-19T08:51:04;16.30;99.90
19734;DHT22;10018;51.230;7.860;2023-09-19T08:56:18;16.30;99.90
19734;DHT22;10018;51.230;7.860;2023-09-19T08:58:57;16.40;99.90
19734;DHT22;10018;51.230;7.860;2023-09-19T09:01:24;16.60;99.90
19734;DHT22;10018;51.230;7.860;2023-09-19T09:03:53;16.70;99.90
19734;DHT22;10018;51.230;7.860;2023-09-19T09:06:20;16.70;99.90
19734;DHT22;10018;51.230;7.860;2023-09-19T09:08:47;16.60;99.90
19734;DHT22;10018;51.230;7.860;2023-09-19T09:11:14;16.70;99.90
19734;DHT22;10018;51.230;7.860;2023-09-19T09:13:41;16.70;99.90
19734;DHT22;10018;51.230;7.860;2023-09-19T09:16:08;16.70;99.90
19734;DHT22;10018;51.230;7.860;2023-09-19T09:18:35;16.70;99.90
19734;DHT22;10018;51.230;7.860;2023-09-19T09:21:03;16.50;99.90
19734;DHT22;10018;51.230;7.860;2023-09-19T09:23:32;16.50;99.90
19734;DHT22;10018;51.230;7.860;2023-09-19T09:25:58;16.40;99.90
19734;DHT22;10018;51.230;7.860;2023-09-19T09:28:29;16.50;99.90
19734;DHT22;10018;51.230;7.860;2023-09-19T09:30:59;16.40;99.90
19734;DHT22;10018;51.230;7.860;2023-09-19T09:33:26;16.50;99.90
19734;DHT22;10018;51.230;7.860;2023-09-19T09:36:03;16.60;99.90
19734;DHT22;10018;51.230;7.860;2023-09-19T09:38:48;16.60;99.90
19734;DHT22;10018;51.230;7.860;2023-09-19T09:41:15;16.80;99.90
19734;DHT22;10018;51.230;7.860;2023-09-19T09:43:53;16.90;99.90
19734;DHT22;10018;51.230;7.860;2023-09-19T09:46:20;17.00;99.90
19734;DHT22;10018;51.230;7.860;2023-09-19T09:48:46;17.00;99.90
19734;DHT22;10018;51.230;7.860;2023-09-19T09:51:30;17.00;99.90
19734;DHT22;10018;51.230;7.860;2023-09-19T09:54:18;17.00;99.90
19734;DHT22;10018;51.230;7.860;2023-09-19T09:56:53;16.90;99.90
19734;DHT22;10018;51.230;7.860;2023-09-19T09:59:20;17.00;99.90
19734;DHT22;10018;51.230;7.860;2023-09-19T10:01:49;17.10;99.90
19734;DHT22;10018;51.230;7.860;2023-09-19T10:04:28;17.20;99.90
19734;DHT22;10018;51.230;7.860;2023-09-19T10:07:02;17.20;99.90
19734;DHT22;10018;51.230;7.860;2023-09-19T10:09:45;17.30;99.90
19734;DHT22;10018;51.230;7.860;2023-09-19T10:12:13;17.30;99.90
19734;DHT22;10018;51.230;7.860;2023-09-19T10:14:41;17.30;99.90
19734;DHT22;10018;51.230;7.860;2023-09-19T10:17:10;17.40;99.90
19734;DHT22;10018;51.230;7.860;2023-09-19T10:19:48;17.50;99.90
19734;DHT22;10018;51.230;7.860;2023-09-19T10:22:16;17.60;99.90
19734;DHT22;10018;51.230;7.860;2023-09-19T10:24:47;17.50;99.90
19734;DHT22;10018;51.230;7.860;2023-09-19T10:27:12;17.60;99.90
19734;DHT22;10018;51.230;7.860;2023-09-19T10:29:43;17.60;99.90
19734;DHT22;10018;51.230;7.860;2023-09-19T10:32:10;17.60;99.90
19734;DHT22;10018;51.230;7.860;2023-09-19T10:34:44;17.50;99.90
19734;DHT22;10018;51.230;7.860;2023-09-19T10:37:12;17.60;99.90
19734;DHT22;10018;51.230;7.860;2023-09-19T10:39:40;17.70;99.90
19734;DHT22;10018;51.230;7.860;2023-09-19T10:42:11;17.60;99.90
19734;DHT22;10018;51.230;7.860;2023-09-19T10:44:42;17.60;99.90
19734;DHT22;10018;51.230;7.860;2023-09-19T10:47:10;17.60;99.90
19734;DHT22;10018;51.230;7.860;2023-09-19T10:49:45;17.60;99.90
19734;DHT22;10018;51.230;7.860;2023-09-19T10:52:14;17.70;99.90
19734;DHT22;10018;51.230;7.860;2023-09-19T10:54:47;17.80;99.90
19734;DHT22;10018;51.230;7.860;2023-09-19T10:57:23;17.80;99.90
19734;DHT22;10018;51.230;7.860;2023-09-19T11:00:06;17.80;99.90
19734;DHT22;10018;51.230;7.860;2023-09-19T11:03:22;17.90;99.90
19734;DHT22;10018;51.230;7.860;2023-09-19T11:06:12;17.90;99.90
19734;DHT22;10018;51.230;7.860;2023-09-19T11:08:51;18.00;99.90
19734;DHT22;10018;51.230;7.860;2023-09-19T11:16:40;18.10;99.90
19734;DHT22;10018;51.230;7.860;2023-09-19T11:19:05;18.10;99.90
19734;DHT22;10018;51.230;7.860;2023-09-19T11:26:43;18.00;99.90
19734;DHT22;10018;51.230;7.860;2023-09-19T11:29:28;18.00;99.90
19734;DHT22;10018;51.230;7.860;2023-09-19T11:31:55;18.20;99.90
19734;DHT22;10018;51.230;7.860;2023-09-19T11:40:07;18.30;99.90
19734;DHT22;10018;51.230;7.860;2023-09-19T11:42:45;18.50;99.90
19734;DHT22;10018;51.230;7.860;2023-09-19T11:48:06;19.00;99.90
19734;DHT22;10018;51.230;7.860;2023-09-19T11:50:33;18.90;99.90
19734;DHT22;10018;51.230;7.860;2023-09-19T11:53:01;18.90;99.90
19734;DHT22;10018;51.230;7.860;2023-09-19T11:55:29;19.10;99.90
19734;DHT22;10018;51.230;7.860;2023-09-19T11:57:58;19.00;99.90
19734;DHT22;10018;51.230;7.860;2023-09-19T12:00:24;18.90;99.90
19734;DHT22;10018;51.230;7.860;2023-09-19T12:02:55;18.90;99.90
19734;DHT22;10018;51.230;7.860;2023-09-19T12:05:29;18.90;99.90
19734;DHT22;10018;51.230;7.860;2023-09-19T12:07:55;18.90;99.90
19734;DHT22;10018;51.230;7.860;2023-09-19T12:10:21;19.00;99.90
19734;DHT22;10018;51.230;7.860;2023-09-19T12:12:49;19.10;99.90
19734;DHT22;10018;51.230;7.860;2023-09-19T12:15:16;19.10;99.90
19734;DHT22;10018;51.230;7.860;2023-09-19T12:17:48;19.00;99.90
19734;DHT22;10018;51.230;7.860;2023-09-19T12:20:14;18.90;99.90
19734;DHT22;10018;51.230;7.860;2023-09-19T12:22:44;18.90;99.90
19734;DHT22;10018;51.230;7.860;2023-09-19T12:25:11;19.00;99.90
19734;DHT22;10018;51.230;7.860;2023-09-19T12:27:48;19.10;99.90
19734;DHT22;10018;51.230;7.860;2023-09-19T12:30:18;19.10;99.90
19734;DHT22;10018;51.230;7.860;2023-09-19T12:32:44;19.10;99.90
19734;DHT22;10018;51.230;7.860;2023-09-19T12:35:29;19.30;99.90
19734;DHT22;10018;51.230;7.860;2023-09-19T12:38:06;19.50;99.90
19734;DHT22;10018;51.230;7.860;2023-09-19T12:40:33;19.80;99.90
19734;DHT22;10018;51.230;7.860;2023-09-19T12:43:01;19.70;99.90
19734;DHT22;10018;51.230;7.860;2023-09-19T12:45:30;19.90;99.90
19734;DHT22;10018;51.230;7.860;2023-09-19T12:51:10;19.80;99.90
19734;DHT22;10018;51.230;7.860;2023-09-19T12:53:44;19.50;99.90
19734;DHT22;10018;51.230;7.860;2023-09-19T12:56:13;19.50;99.90
19734;DHT22;10018;51.230;7.860;2023-09-19T13:01:19;19.90;99.90
19734;DHT22;10018;51.230;7.860;2023-09-19T13:03:45;19.80;99.90
19734;DHT22;10018;51.230;7.860;2023-09-19T13:06:11;19.70;99.90
19734;DHT22;10018;51.230;7.860;2023-09-19T13:08:39;19.90;99.90
19734;DHT22;10018;51.230;7.860;2023-09-19T13:11:13;20.10;99.90
19734;DHT22;10018;51.230;7.860;2023-09-19T13:13:43;20.00;99.90
19734;DHT22;10018;51.230;7.860;2023-09-19T13:16:15;20.10;99.90
19734;DHT22;10018;51.230;7.860;2023-09-19T13:18:52;20.00;99.90
19734;DHT22;10018;51.230;7.860;2023-09-19T13:21:34;20.10;99.90
19734;DHT22;10018;51.230;7.860;2023-09-19T13:24:22;20.10;99.90
19734;DHT22;10018;51.230;7.860;2023-09-19T13:26:48;20.20;99.90
19734;DHT22;10018;51.230;7.860;2023-09-19T13:29:15;20.20;99.90
19734;DHT22;10018;51.230;7.860;2023-09-19T13:31:51;20.20;99.90
19734;DHT22;10018;51.230;7.860;2023-09-19T13:34:18;20.20;99.90
19734;DHT22;10018;51.230;7.860;2023-09-19T13:36:45;20.60;99.90
19734;DHT22;10018;51.230;7.860;2023-09-19T13:39:14;20.70;99.90
19734;DHT22;10018;51.230;7.860;2023-09-19T13:41:40;20.90;99.90
19734;DHT22;10018;51.230;7.860;2023-09-19T13:44:07;20.80;99.90
19734;DHT22;10018;51.230;7.860;2023-09-19T13:46:33;20.90;99.90
19734;DHT22;10018;51.230;7.860;2023-09-19T13:49:04;20.60;99.90
19734;DHT22;10018;51.230;7.860;2023-09-19T13:51:30;20.40;99.90
19734;DHT22;10018;51.230;7.860;2023-09-19T13:53:56;20.20;99.90
19734;DHT22;10018;51.230;7.860;2023-09-19T13:56:22;20.30;99.90
19734;DHT22;10018;51.230;7.860;2023-09-19T13:58:48;20.40;99.90
19734;DHT22;10018;51.230;7.860;2023-09-19T14:01:16;20.50;99.90
19734;DHT22;10018;51.230;7.860;2023-09-19T14:03:42;20.80;99.90
19734;DHT22;10018;51.230;7.860;2023-09-19T14:06:12;21.30;99.90
19734;DHT22;10018;51.230;7.860;2023-09-19T14:08:38;22.40;99.90
19734;DHT22;10018;51.230;7.860;2023-09-19T14:11:07;23.10;99.90
19734;DHT22;10018;51.230;7.860;2023-09-19T14:13:33;23.40;99.90
19734;DHT22;10018;51.230;7.860;2023-09-19T14:16:06;24.00;99.90
19734;DHT22;10018;51.230;7.860;2023-09-19T14:18:32;24.50;99.90
19734;DHT22;10018;51.230;7.860;2023-09-19T14:20:57;24.30;99.90
19734;DHT22;10018;51.230;7.860;2023-09-19T14:23:23;24.40;99.90
19734;DHT22;10018;51.230;7.860;2023-09-19T14:25:51;23.90;99.90
19734;DHT22;10018;51.230;7.860;2023-09-19T14:28:18;24.10;99.90
19734;DHT22;10018;51.230;7.860;2023-09-19T14:30:44;24.20;99.90
19734;DHT22;10018;51.230;7.860;2023-09-19T14:33:11;23.60;99.90
19734;DHT22;10018;51.230;7.860;2023-09-19T14:35:37;22.40;99.90
19734;DHT22;10018;51.230;7.860;2023-09-19T14:38:04;22.00;99.90
19734;DHT22;10018;51.230;7.860;2023-09-19T14:40:29;22.20;99.90
19734;DHT22;10018;51.230;7.860;2023-09-19T14:42:56;22.80;99.90
19734;DHT22;10018;51.230;7.860;2023-09-19T14:45:21;23.20;99.90
19734;DHT22;10018;51.230;7.860;2023-09-19T14:47:47;24.00;99.90
19734;DHT22;10018;51.230;7.860;2023-09-19T14:50:13;24.10;99.90
19734;DHT22;10018;51.230;7.860;2023-09-19T14:52:44;23.50;99.90
19734;DHT22;10018;51.230;7.860;2023-09-19T14:55:09;22.70;99.90
19734;DHT22;10018;51.230;7.860;2023-09-19T14:57:39;22.20;99.90
19734;DHT22;10018;51.230;7.860;2023-09-19T15:00:06;21.90;99.90
19734;DHT22;10018;51.230;7.860;2023-09-19T15:02:37;21.90;99.90
19734;DHT22;10018;51.230;7.860;2023-09-19T15:05:03;21.20;99.90
19734;DHT22;10018;51.230;7.860;2023-09-19T15:07:29;20.60;99.90
19734;DHT22;10018;51.230;7.860;2023-09-19T15:09:57;20.30;99.90
19734;DHT22;10018;51.230;7.860;2023-09-19T15:12:23;20.00;99.90
19734;DHT22;10018;51.230;7.860;2023-09-19T15:14:48;19.90;99.90
19734;DHT22;10018;51.230;7.860;2023-09-19T15:17:14;19.80;99.90
19734;DHT22;10018;51.230;7.860;2023-09-19T15:19:40;19.80;99.90
19734;DHT22;10018;51.230;7.860;2023-09-19T15:22:06;19.80;99.90
19734;DHT22;10018;51.230;7.860;2023-09-19T15:24:32;20.40;99.90
19734;DHT22;10018;51.230;7.860;2023-09-19T15:26:57;20.70;99.90
19734;DHT22;10018;51.230;7.860;2023-09-19T15:29:23;20.50;99.90
19734;DHT22;10018;51.230;7.860;2023-09-19T15:31:48;20.60;99.90
19734;DHT22;10018;51.230;7.860;2023-09-19T15:34:14;20.50;99.90
19734;DHT22;10018;51.230;7.860;2023-09-19T15:36:41;20.30;99.90
19734;DHT22;10018;51.230;7.860;2023-09-19T15:39:10;20.10;99.90
19734;DHT22;10018;51.230;7.860;2023-09-19T15:41:38;20.00;99.90
19734;DHT22;10018;51.230;7.860;2023-09-19T15:44:07;20.50;99.90
19734;DHT22;10018;51.230;7.860;2023-09-19T15:46:35;21.50;99.90
19734;DHT22;10018;51.230;7.860;2023-09-19T15:49:01;22.60;99.90
19734;DHT22;10018;51.230;7.860;2023-09-19T15:51:27;23.20;99.90
19734;DHT22;10018;51.230;7.860;2023-09-19T15:53:54;22.80;99.90
19734;DHT22;10018;51.230;7.860;2023-09-19T15:56:21;21.70;99.90
19734;DHT22;10018;51.230;7.860;2023-09-19T15:58:51;20.90;99.90
19734;DHT22;10018;51.230;7.860;2023-09-19T16:01:17;20.50;99.90
19734;DHT22;10018;51.230;7.860;2023-09-19T16:03:46;20.40;99.90
19734;DHT22;10018;51.230;7.860;2023-09-19T16:06:17;20.70;99.90
19734;DHT22;10018;51.230;7.860;2023-09-19T16:08:47;20.60;99.90
19734;DHT22;10018;51.230;7.860;2023-09-19T16:11:13;20.20;99.90
19734;DHT22;10018;51.230;7.860;2023-09-19T16:13:40;20.00;99.90
19734;DHT22;10018;51.230;7.860;2023-09-19T16:16:12;20.00;99.90
19734;DHT22;10018;51.230;7.860;2023-09-19T16:18:39;19.90;99.90
19734;DHT22;10018;51.230;7.860;2023-09-19T16:21:05;19.80;99.90
19734;DHT22;10018;51.230;7.860;2023-09-19T16:23:33;19.80;99.90